createdAt,value
2019-05-02T00:01:41.507Z,76.30
2019-05-02T00:04:12.407Z,77.20
2019-05-02T00:06:38.121Z,75.80
2019-05-02T00:09:09.159Z,75.10
2019-05-02T00:11:36.284Z,75.30
2019-05-02T00:14:03.631Z,75.40
2019-05-02T00:16:30.764Z,75.90
2019-05-02T00:18:57.483Z,76.40
2019-05-02T00:21:24.735Z,77.20
2019-05-02T00:23:51.483Z,77.40
2019-05-02T00:26:18.175Z,77.70
2019-05-02T00:28:47.925Z,78.40
2019-05-02T00:31:13.925Z,78.60
2019-05-02T00:33:40.860Z,78.60
2019-05-02T00:36:07.549Z,79.20
2019-05-02T00:38:38.331Z,79.30
2019-05-02T00:41:03.951Z,79.30
2019-05-02T00:43:34.595Z,78.90
2019-05-02T00:46:00.956Z,79.50
2019-05-02T00:48:39.560Z,79.80
2019-05-02T00:51:06.374Z,80.50
2019-05-02T00:53:33.197Z,80.20
2019-05-02T00:55:59.882Z,81.50
2019-05-02T00:58:27.311Z,82.60
2019-05-02T01:01:11.543Z,81.50
2019-05-02T01:03:40.726Z,82.00
2019-05-02T01:06:13.907Z,82.50
2019-05-02T01:08:36.977Z,83.40
2019-05-02T01:11:04.121Z,84.90
2019-05-02T01:13:31.089Z,85.20
2019-05-02T01:15:57.814Z,85.70
2019-05-02T01:18:24.926Z,86.30
2019-05-02T01:20:51.655Z,86.50
2019-05-02T01:23:22.927Z,85.60
2019-05-02T01:25:52.632Z,85.30
2019-05-02T01:28:34.884Z,85.50
2019-05-02T01:31:16.642Z,84.60
2019-05-02T01:33:45.891Z,85.00
2019-05-02T01:36:17.335Z,85.60
2019-05-02T01:38:46.384Z,86.70
2019-05-02T01:41:13.200Z,87.40
2019-05-02T01:43:40.092Z,87.60
2019-05-02T01:46:06.830Z,86.10
2019-05-02T01:48:33.725Z,86.40
2019-05-02T01:51:04.327Z,87.50
2019-05-02T01:53:34.146Z,88.40
2019-05-02T01:55:59.416Z,88.40
2019-05-02T01:58:26.298Z,88.60
2019-05-02T02:00:53.224Z,89.10
2019-05-02T02:03:20.059Z,89.30
2019-05-02T02:05:46.988Z,88.00
2019-05-02T02:08:13.808Z,86.20
2019-05-02T02:10:43.704Z,86.90
2019-05-02T02:13:09.536Z,88.60
2019-05-02T02:15:36.441Z,87.10
2019-05-02T02:18:03.567Z,88.00
2019-05-02T02:20:35.113Z,87.70
2019-05-02T02:23:29.263Z,86.10
2019-05-02T02:26:01.605Z,85.10
2019-05-02T02:28:31.997Z,84.50
2019-05-02T02:30:58.069Z,84.30
2019-05-02T02:33:25.925Z,86.40
2019-05-02T02:35:53.290Z,85.60
2019-05-02T02:38:19.985Z,87.00
2019-05-02T02:40:47.054Z,89.10
2019-05-02T02:43:32.959Z,90.70
2019-05-02T02:46:01.871Z,91.10
2019-05-02T02:48:34.059Z,92.00
2019-05-02T02:50:58.050Z,92.50
2019-05-02T02:53:30.659Z,93.40
2019-05-02T02:56:01.702Z,94.40
2019-05-02T02:58:28.312Z,95.10
2019-05-02T03:00:55.439Z,95.70
2019-05-02T03:03:27.799Z,96.40
2019-05-02T03:05:51.250Z,97.00
2019-05-02T03:08:18.241Z,97.70
2019-05-02T03:10:46.652Z,98.30
2019-05-02T03:13:51.394Z,99.30
2019-05-02T03:16:11.058Z,99.90
2019-05-02T03:18:40.790Z,99.60
2019-05-02T03:21:07.008Z,99.80
2019-05-02T03:23:34.705Z,99.60
2019-05-02T03:26:08.024Z,99.90
2019-05-02T03:28:30.992Z,99.90
2019-05-02T03:30:58.311Z,99.90
2019-05-02T03:33:25.186Z,99.90
2019-05-02T03:35:52.011Z,99.90
2019-05-02T03:38:31.659Z,99.90
2019-05-02T03:40:48.041Z,99.90
2019-05-02T03:43:19.055Z,99.90
2019-05-02T03:45:43.908Z,99.90
2019-05-02T03:48:11.106Z,99.90
2019-05-02T03:50:38.512Z,99.90
2019-05-02T03:53:05.495Z,99.90
2019-05-02T03:55:33.968Z,99.90
2019-05-02T03:58:13.121Z,99.90
2019-05-02T04:00:35.426Z,99.90
2019-05-02T04:03:02.936Z,99.90
2019-05-02T04:05:33.666Z,99.90
2019-05-02T04:07:59.097Z,99.90
2019-05-02T04:11:07.177Z,99.90
2019-05-02T04:13:36.302Z,99.90
2019-05-02T04:16:14.315Z,99.90
2019-05-02T04:18:33.441Z,99.90
2019-05-02T04:21:00.953Z,99.90
2019-05-02T04:23:29.863Z,99.90
2019-05-02T04:25:57.506Z,99.90
2019-05-02T04:28:24.176Z,99.90
2019-05-02T04:30:53.513Z,99.90
2019-05-02T04:33:20.020Z,99.90
2019-05-02T04:35:46.723Z,99.90
2019-05-02T04:38:20.068Z,99.90
2019-05-02T04:40:46.377Z,99.90
2019-05-02T04:43:11.645Z,99.90
2019-05-02T04:45:53.105Z,99.90
2019-05-02T04:48:08.556Z,99.90
2019-05-02T04:50:37.713Z,99.90
2019-05-02T04:53:04.165Z,99.90
2019-05-02T04:55:33.470Z,99.90
2019-05-02T04:58:01.806Z,99.90
2019-05-02T05:00:28.955Z,99.90
2019-05-02T05:02:58.031Z,99.90
2019-05-02T05:05:26.007Z,99.90
2019-05-02T05:07:53.444Z,99.90
2019-05-02T05:10:20.917Z,99.90
2019-05-02T05:12:47.999Z,99.90
2019-05-02T05:15:33.858Z,99.90
2019-05-02T05:17:44.144Z,99.90
2019-05-02T05:20:15.547Z,99.80
2019-05-02T05:22:44.186Z,95.20
2019-05-02T05:25:17.771Z,91.60
2019-05-02T05:27:42.833Z,86.30
2019-05-02T05:30:15.545Z,82.10
2019-05-02T05:32:38.668Z,78.80
2019-05-02T05:35:08.926Z,74.80
2019-05-02T05:37:34.840Z,73.30
2019-05-02T05:40:01.560Z,76.40
2019-05-02T05:45:08.512Z,74.00
2019-05-02T05:47:32.187Z,69.80
2019-05-02T05:50:00.981Z,68.80
2019-05-02T05:52:27.880Z,67.70
2019-05-02T05:54:54.855Z,67.40
2019-05-02T05:57:21.571Z,65.90
2019-05-02T05:59:48.636Z,62.30
2019-05-02T06:02:15.480Z,58.60
2019-05-02T06:04:42.514Z,56.40
2019-05-02T06:07:09.326Z,53.90
2019-05-02T06:09:36.042Z,51.40
2019-05-02T06:12:03.423Z,50.70
2019-05-02T06:14:30.113Z,48.60
2019-05-02T06:16:56.822Z,48.20
2019-05-02T06:19:23.531Z,47.20
2019-05-02T06:21:50.713Z,48.50
2019-05-02T06:24:17.420Z,47.70
2019-05-02T06:26:44.781Z,48.60
2019-05-02T06:29:18.406Z,47.70
2019-05-02T06:31:43.015Z,48.40
2019-05-02T06:34:10.224Z,49.80
2019-05-02T06:36:38.071Z,50.30
2019-05-02T06:39:05.233Z,52.00
2019-05-02T06:41:31.926Z,52.50
2019-05-02T06:43:58.884Z,50.00
2019-05-02T06:46:27.777Z,52.70
2019-05-02T06:48:54.541Z,52.50
2019-05-02T06:51:21.272Z,51.40
2019-05-02T06:53:48.967Z,51.70
2019-05-02T06:56:16.517Z,52.70
2019-05-02T06:58:43.364Z,51.10
2019-05-02T07:01:10.482Z,52.20
2019-05-02T07:03:41.419Z,53.10
2019-05-02T07:06:07.681Z,52.20
2019-05-02T07:08:34.992Z,52.70
2019-05-02T07:11:03.174Z,55.80
2019-05-02T07:13:31.472Z,55.60
2019-05-02T07:16:10.520Z,54.60
2019-05-02T07:18:47.070Z,54.20
2019-05-02T07:21:12.111Z,53.90
2019-05-02T07:23:39.715Z,53.80
2019-05-02T07:26:06.549Z,53.70
2019-05-02T07:28:33.317Z,52.40
2019-05-02T07:31:00.563Z,55.40
2019-05-02T07:33:32.271Z,48.60
2019-05-02T07:36:00.070Z,44.00
2019-05-02T07:38:27.432Z,41.30
2019-05-02T07:40:54.350Z,40.90
2019-05-02T07:43:22.351Z,40.40
2019-05-02T07:45:49.169Z,41.60
2019-05-02T07:48:17.722Z,41.90
2019-05-02T07:50:46.452Z,42.40
2019-05-02T07:53:14.299Z,41.40
2019-05-02T07:55:42.751Z,42.90
2019-05-02T07:58:09.812Z,41.50
2019-05-02T08:00:38.345Z,40.40
2019-05-02T08:03:05.387Z,38.60
2019-05-02T08:05:32.060Z,37.00
2019-05-02T08:07:58.788Z,34.90
2019-05-02T08:10:25.963Z,36.40
2019-05-02T08:12:52.651Z,38.30
2019-05-02T08:15:20.156Z,37.30
2019-05-02T08:17:53.207Z,35.80
2019-05-02T08:20:18.997Z,35.80
2019-05-02T08:22:49.044Z,36.00
2019-05-02T08:25:13.375Z,35.10
2019-05-02T08:27:51.347Z,35.90
2019-05-02T08:30:23.052Z,39.30
2019-05-02T08:32:49.735Z,40.20
2019-05-02T08:35:16.588Z,40.20
2019-05-02T08:37:43.286Z,41.00
2019-05-02T08:40:11.042Z,40.40
2019-05-02T08:42:39.016Z,38.60
2019-05-02T08:45:06.226Z,38.20
2019-05-02T08:47:33.191Z,38.10
2019-05-02T08:50:00.095Z,37.40
2019-05-02T08:52:27.171Z,37.60
2019-05-02T08:54:54.163Z,39.20
2019-05-02T08:57:23.628Z,39.30
2019-05-02T08:59:49.535Z,39.20
2019-05-02T09:02:16.261Z,38.60
2019-05-02T09:04:43.060Z,37.30
2019-05-02T09:07:10.009Z,35.30
2019-05-02T09:09:36.808Z,35.00
2019-05-02T09:12:12.136Z,35.20
2019-05-02T09:14:32.671Z,34.40
2019-05-02T09:17:00.138Z,34.10
2019-05-02T09:19:31.673Z,36.60
2019-05-02T09:21:57.504Z,37.00
2019-05-02T09:24:24.449Z,38.80
2019-05-02T09:26:51.978Z,39.00
2019-05-02T09:29:19.257Z,41.10
2019-05-02T09:31:46.271Z,42.30
2019-05-02T09:34:17.050Z,42.00
2019-05-02T09:36:42.004Z,41.80
2019-05-02T09:39:08.995Z,42.10
2019-05-02T09:41:36.379Z,41.50
2019-05-02T09:44:03.560Z,40.90
2019-05-02T09:46:32.493Z,39.80
2019-05-02T09:49:02.892Z,40.50
2019-05-02T09:51:27.925Z,41.60
2019-05-02T09:53:57.159Z,41.60
2019-05-02T09:56:26.329Z,41.20
2019-05-02T09:58:55.069Z,40.90
2019-05-02T10:01:33.034Z,42.20
2019-05-02T10:03:59.750Z,42.00
2019-05-02T10:06:27.027Z,41.80
2019-05-02T10:08:53.942Z,41.90
2019-05-02T10:11:22.487Z,41.60
2019-05-02T10:13:51.732Z,41.10
2019-05-02T10:16:23.568Z,41.20
2019-05-02T10:18:47.412Z,41.20
2019-05-02T10:21:17.139Z,40.70
2019-05-02T10:23:42.829Z,41.00
2019-05-02T10:26:14.659Z,39.90
2019-05-02T10:28:41.843Z,39.30
2019-05-02T10:31:07.964Z,39.60
2019-05-02T10:33:37.616Z,39.40
2019-05-02T10:36:04.012Z,41.30
2019-05-02T10:38:32.570Z,40.70
2019-05-02T10:41:02.638Z,40.10
2019-05-02T10:43:28.834Z,39.90
2019-05-02T10:46:01.815Z,39.30
2019-05-02T10:48:29.267Z,39.00
2019-05-02T10:51:15.879Z,39.40
2019-05-02T10:53:46.978Z,39.30
2019-05-02T10:56:11.819Z,39.30
2019-05-02T10:58:38.740Z,39.30
2019-05-02T11:01:06.758Z,39.50
2019-05-02T11:03:43.031Z,38.70
2019-05-02T11:06:07.820Z,38.70
2019-05-02T11:08:36.688Z,37.50
2019-05-02T11:11:06.278Z,37.20
2019-05-02T11:13:42.491Z,38.70
2019-05-02T11:16:47.259Z,38.60
2019-05-02T11:19:24.430Z,37.70
2019-05-02T11:21:56.418Z,37.10
2019-05-02T11:24:19.840Z,37.50
2019-05-02T11:26:52.809Z,38.20
2019-05-02T11:29:24.008Z,37.70
2019-05-02T11:31:57.686Z,35.80
2019-05-02T11:34:41.972Z,36.10
2019-05-02T11:37:18.724Z,37.10
2019-05-02T11:39:51.483Z,37.70
2019-05-02T11:42:17.662Z,36.00
2019-05-02T11:44:43.188Z,36.40
2019-05-02T11:47:09.892Z,34.30
2019-05-02T11:49:36.856Z,33.70
2019-05-02T11:52:04.754Z,32.90
2019-05-02T11:54:32.066Z,33.90
2019-05-02T11:56:59.256Z,34.20
2019-05-02T11:59:28.207Z,33.60
2019-05-02T12:02:03.365Z,34.10
2019-05-02T12:04:32.448Z,34.40
2019-05-02T12:07:01.221Z,35.00
2019-05-02T12:09:28.099Z,35.00
2019-05-02T12:11:56.681Z,34.90
2019-05-02T12:14:27.423Z,36.00
2019-05-02T12:16:52.823Z,36.20
2019-05-02T12:19:19.884Z,35.70
2019-05-02T12:21:53.019Z,36.00
2019-05-02T12:24:19.735Z,35.70
2019-05-02T12:26:46.706Z,35.90
2019-05-02T12:29:13.683Z,35.80
2019-05-02T12:31:42.524Z,35.60
2019-05-02T12:34:09.160Z,35.70
2019-05-02T12:36:36.231Z,35.60
2019-05-02T12:39:04.935Z,35.70
2019-05-02T12:41:33.143Z,35.70
2019-05-02T12:44:02.081Z,35.30
2019-05-02T12:46:28.783Z,35.60
2019-05-02T12:48:55.489Z,35.90
2019-05-02T12:51:22.669Z,36.00
2019-05-02T12:53:49.444Z,35.70
2019-05-02T12:56:16.178Z,35.60
2019-05-02T12:58:43.212Z,35.60
2019-05-02T13:01:12.205Z,35.20
2019-05-02T13:03:46.697Z,34.50
2019-05-02T13:06:13.697Z,34.90
2019-05-02T13:08:49.093Z,35.10
2019-05-02T13:11:24.628Z,35.30
2019-05-02T13:13:53.339Z,35.50
2019-05-02T13:16:22.549Z,35.90
2019-05-02T13:18:49.391Z,36.40
2019-05-02T13:21:23.337Z,36.30
2019-05-02T13:23:55.507Z,36.60
2019-05-02T13:26:26.994Z,36.00
2019-05-02T13:28:51.698Z,37.50
2019-05-02T13:31:27.138Z,38.50
2019-05-02T13:34:14.725Z,36.60
2019-05-02T13:36:43.871Z,37.70
2019-05-02T13:39:19.365Z,36.50
2019-05-02T13:41:46.281Z,35.80
2019-05-02T13:44:16.277Z,35.60
2019-05-02T13:46:43.297Z,35.00
2019-05-02T13:49:10.292Z,35.40
2019-05-02T13:51:37.091Z,36.00
2019-05-02T13:54:04.195Z,34.90
2019-05-02T13:56:52.868Z,36.10
2019-05-02T13:59:22.212Z,37.10
2019-05-02T14:01:52.122Z,38.30
2019-05-02T14:04:19.332Z,39.00
2019-05-02T14:06:46.135Z,38.90
2019-05-02T14:09:28.464Z,39.40
2019-05-02T14:12:03.608Z,38.60
2019-05-02T14:14:32.461Z,38.60
2019-05-02T14:16:59.191Z,37.70
2019-05-02T14:19:26.274Z,38.40
2019-05-02T14:21:53.001Z,38.50
2019-05-02T14:24:23.077Z,38.40
2019-05-02T14:26:52.399Z,38.80
2019-05-02T14:29:19.220Z,38.70
2019-05-02T14:31:46.225Z,38.80
2019-05-02T14:34:38.339Z,39.00
2019-05-02T14:37:05.163Z,39.00
2019-05-02T14:39:32.592Z,38.30
2019-05-02T14:41:59.381Z,38.40
2019-05-02T14:44:36.236Z,39.60
2019-05-02T14:46:54.934Z,40.40
2019-05-02T14:49:25.426Z,40.90
2019-05-02T14:51:52.385Z,40.40
2019-05-02T14:54:19.198Z,40.80
2019-05-02T14:56:52.150Z,41.40
2019-05-02T14:59:20.132Z,39.70
2019-05-02T15:01:52.736Z,38.40
2019-05-02T15:04:20.052Z,37.70
2019-05-02T15:06:47.557Z,37.70
2019-05-02T15:09:16.803Z,38.20
2019-05-02T15:12:13.527Z,38.90
2019-05-02T15:14:33.530Z,38.80
2019-05-02T15:17:02.514Z,39.00
2019-05-02T15:19:29.607Z,39.30
2019-05-02T15:21:56.415Z,39.10
2019-05-02T15:24:23.200Z,39.20
2019-05-02T15:26:50.049Z,38.20
2019-05-02T15:29:19.630Z,38.40
2019-05-02T15:31:52.793Z,39.50
2019-05-02T15:34:26.157Z,39.70
2019-05-02T15:36:52.877Z,40.00
2019-05-02T15:41:48.708Z,40.80
2019-05-02T15:44:18.964Z,41.30
2019-05-02T15:46:44.657Z,41.50
2019-05-02T15:49:12.308Z,41.50
2019-05-02T15:51:43.683Z,41.50
2019-05-02T15:54:08.940Z,41.30
2019-05-02T15:56:52.270Z,40.70
2019-05-02T15:59:32.433Z,40.30
2019-05-02T16:02:06.986Z,40.30
2019-05-02T16:04:35.527Z,39.60
2019-05-02T16:07:06.931Z,40.00
2019-05-02T16:09:32.891Z,39.50
2019-05-02T16:12:00.166Z,40.70
2019-05-02T16:14:31.356Z,40.20
2019-05-02T16:16:55.679Z,40.60
2019-05-02T16:19:28.771Z,39.80
2019-05-02T16:21:59.513Z,40.00
2019-05-02T16:24:24.831Z,40.20
2019-05-02T16:26:53.142Z,39.90
2019-05-02T16:29:26.809Z,39.80
2019-05-02T16:31:59.706Z,40.00
2019-05-02T16:34:27.458Z,40.00
2019-05-02T16:37:13.621Z,40.00
2019-05-02T16:39:36.337Z,39.60
2019-05-02T16:42:04.761Z,39.20
2019-05-02T16:44:32.270Z,39.30
2019-05-02T16:46:59.080Z,38.30
2019-05-02T16:49:25.817Z,39.00
2019-05-02T16:51:52.965Z,39.20
2019-05-02T16:54:19.833Z,39.30
2019-05-02T16:56:46.861Z,39.10
2019-05-02T16:59:16.968Z,39.50
2019-05-02T17:01:42.562Z,39.70
2019-05-02T17:04:09.337Z,40.00
2019-05-02T17:06:37.749Z,41.30
2019-05-02T17:09:21.764Z,40.80
2019-05-02T17:11:49.223Z,40.90
2019-05-02T17:14:15.959Z,39.30
2019-05-02T17:16:47.073Z,39.30
2019-05-02T17:19:12.290Z,38.90
2019-05-02T17:21:52.865Z,37.70
2019-05-02T17:24:08.252Z,36.70
2019-05-02T17:26:35.195Z,37.20
2019-05-02T17:29:02.503Z,37.30
2019-05-02T17:31:29.280Z,36.80
2019-05-02T17:33:56.134Z,36.30
2019-05-02T17:36:28.629Z,36.40
2019-05-02T17:38:54.219Z,36.50
2019-05-02T17:41:20.283Z,36.40
2019-05-02T17:43:49.040Z,36.80
2019-05-02T17:46:18.345Z,37.40
2019-05-02T17:48:47.716Z,37.00
2019-05-02T17:51:37.741Z,36.90
2019-05-02T17:54:03.115Z,37.00
2019-05-02T17:56:32.429Z,36.90
2019-05-02T17:58:58.825Z,37.70
2019-05-02T18:01:35.804Z,37.80
2019-05-02T18:04:06.984Z,38.20
2019-05-02T18:06:35.315Z,38.10
2019-05-02T18:09:00.116Z,38.40
2019-05-02T18:11:29.546Z,38.60
2019-05-02T18:13:55.616Z,39.00
2019-05-02T18:16:22.356Z,39.50
2019-05-02T18:18:49.233Z,39.80
2019-05-02T18:21:17.700Z,40.00
2019-05-02T18:23:44.693Z,40.10
2019-05-02T18:26:11.568Z,40.40
2019-05-02T18:28:47.039Z,40.50
2019-05-02T18:31:06.983Z,41.00
2019-05-02T18:33:35.954Z,40.70
2019-05-02T18:36:03.546Z,40.80
2019-05-02T18:38:30.240Z,40.80
2019-05-02T18:41:00.269Z,41.80
2019-05-02T18:43:26.127Z,41.30
2019-05-02T18:45:52.846Z,41.60
2019-05-02T18:48:21.859Z,43.20
2019-05-02T18:50:50.143Z,44.10
2019-05-02T18:53:18.693Z,45.40
2019-05-02T18:55:46.483Z,47.30
2019-05-02T18:58:13.611Z,49.80
2019-05-02T19:00:42.078Z,51.60
2019-05-02T19:03:15.134Z,52.90
2019-05-02T19:05:38.622Z,54.10
2019-05-02T19:08:05.912Z,54.80
2019-05-02T19:10:32.648Z,55.60
2019-05-02T19:13:00.972Z,56.70
2019-05-02T19:15:28.327Z,57.40
2019-05-02T19:17:55.350Z,57.80
2019-05-02T19:21:06.592Z,58.50
2019-05-02T19:23:34.514Z,59.20
2019-05-02T19:26:09.660Z,60.40
2019-05-02T19:28:38.344Z,61.40
2019-05-02T19:31:06.823Z,62.70
2019-05-02T19:33:37.303Z,63.60
2019-05-02T19:36:02.957Z,64.60
2019-05-02T19:38:32.298Z,67.30
2019-05-02T19:41:05.574Z,69.50
2019-05-02T19:43:27.211Z,71.10
2019-05-02T19:45:56.236Z,72.40
2019-05-02T19:48:27.436Z,73.90
2019-05-02T19:51:05.398Z,75.40
2019-05-02T19:53:35.901Z,75.90
2019-05-02T19:56:08.834Z,77.90
2019-05-02T19:58:42.639Z,79.40
2019-05-02T20:01:08.503Z,79.70
2019-05-02T20:03:52.057Z,79.40
2019-05-02T20:06:30.040Z,79.30
2019-05-02T20:09:23.240Z,79.40
2019-05-02T20:11:56.355Z,79.10
2019-05-02T20:14:23.336Z,80.70
2019-05-02T20:16:52.994Z,80.50
2019-05-02T20:19:23.261Z,81.20
2019-05-02T20:22:06.600Z,81.50
2019-05-02T20:24:55.435Z,82.10
2019-05-02T20:27:22.438Z,83.50
2019-05-02T20:29:49.650Z,84.10
2019-05-02T20:32:16.468Z,84.70
2019-05-02T20:34:43.301Z,85.10
2019-05-02T20:37:10.319Z,84.70
2019-05-02T20:39:37.105Z,84.70
2019-05-02T20:42:03.949Z,86.30
2019-05-02T20:44:32.104Z,88.30
2019-05-02T20:46:59.204Z,88.80
2019-05-02T20:49:26.288Z,90.10
2019-05-02T20:51:53.004Z,91.00
2019-05-02T20:54:19.705Z,91.70
2019-05-02T20:56:46.926Z,92.00
2019-05-02T20:59:13.741Z,92.30
2019-05-02T21:01:42.704Z,92.20
2019-05-02T21:04:09.178Z,91.80
2019-05-02T21:06:55.545Z,92.00
2019-05-02T21:09:38.953Z,92.80
2019-05-02T21:12:06.548Z,94.10
2019-05-02T21:14:33.490Z,95.10
2019-05-02T21:17:02.034Z,96.10
2019-05-02T21:19:29.012Z,96.20
2019-05-02T21:21:58.225Z,96.50
2019-05-02T21:24:25.380Z,97.90
2019-05-02T21:26:52.626Z,97.90
2019-05-02T21:29:19.385Z,97.80
2019-05-02T21:31:46.112Z,98.20
2019-05-02T21:34:12.801Z,98.60
2019-05-02T21:36:39.941Z,98.70
2019-05-02T21:39:11.876Z,99.70
2019-05-02T21:41:38.860Z,99.90
2019-05-02T21:44:05.894Z,99.90
2019-05-02T21:46:32.840Z,99.90
2019-05-02T21:48:59.537Z,99.90
2019-05-02T21:51:36.861Z,99.50
2019-05-02T21:54:17.484Z,98.90
2019-05-02T21:56:52.203Z,97.90
2019-05-02T21:59:19.087Z,97.50
2019-05-02T22:01:49.144Z,97.10
2019-05-02T22:04:16.420Z,96.70
2019-05-02T22:06:43.319Z,96.30
2019-05-02T22:09:12.221Z,94.90
2019-05-02T22:11:39.654Z,94.50
2019-05-02T22:14:06.483Z,94.80
2019-05-02T22:16:33.300Z,95.10
2019-05-02T22:19:02.692Z,94.50
2019-05-02T22:21:29.320Z,94.20
2019-05-02T22:24:08.238Z,94.30
2019-05-02T22:26:24.792Z,94.20
2019-05-02T22:28:53.627Z,94.10
2019-05-02T22:31:20.322Z,94.00
2019-05-02T22:33:47.566Z,94.20
2019-05-02T22:36:14.604Z,94.40
2019-05-02T22:38:55.089Z,94.30
2019-05-02T22:41:22.182Z,94.00
2019-05-02T22:43:49.428Z,93.30
2019-05-02T22:46:35.807Z,93.50
2019-05-02T22:49:02.725Z,94.30
2019-05-02T22:51:29.444Z,94.70
2019-05-02T22:53:56.129Z,94.90
2019-05-02T22:56:23.212Z,94.50
2019-05-02T22:58:51.532Z,94.50
2019-05-02T23:01:18.595Z,94.60
2019-05-02T23:03:45.316Z,94.50
2019-05-02T23:06:12.542Z,95.00
2019-05-02T23:08:43.354Z,95.70
2019-05-02T23:11:08.997Z,96.10
2019-05-02T23:13:35.809Z,96.50
2019-05-02T23:16:02.976Z,96.70
2019-05-02T23:18:31.623Z,97.10
2019-05-02T23:20:58.380Z,96.70
2019-05-02T23:23:25.088Z,96.80
2019-05-02T23:26:09.160Z,96.30
2019-05-02T23:28:37.435Z,95.70
2019-05-02T23:31:04.344Z,95.30
2019-05-02T23:33:51.482Z,95.00
2019-05-02T23:36:18.257Z,94.80
2019-05-02T23:38:45.251Z,94.50
2019-05-02T23:41:12.603Z,93.90
2019-05-02T23:43:41.626Z,93.80
2019-05-02T23:46:08.551Z,93.60
2019-05-02T23:48:35.415Z,93.50
2019-05-02T23:51:02.698Z,93.60
2019-05-02T23:53:31.473Z,93.70
2019-05-02T23:55:58.152Z,93.60
2019-05-02T23:58:25.317Z,93.50
